createdAt,value
2017-03-14T00:00:05.018Z,1045.29
2017-03-14T00:01:05.006Z,1045.28
2017-03-14T00:02:04.993Z,1045.25
2017-03-14T00:03:04.980Z,1045.2
2017-03-14T00:04:04.966Z,1045.23
2017-03-14T00:05:04.953Z,1045.24
2017-03-14T00:06:04.939Z,1045.2
2017-03-14T00:07:04.925Z,1045.2
2017-03-14T00:08:04.915Z,1045.19
2017-03-14T00:09:04.902Z,1045.2
2017-03-14T00:10:04.886Z,1045.2
2017-03-14T00:11:04.871Z,1045.2
2017-03-14T00:12:04.858Z,1045.22
2017-03-14T00:13:04.845Z,1045.2
2017-03-14T00:14:04.831Z,1045.2
2017-03-14T00:15:04.816Z,1045.2
2017-03-14T00:16:04.803Z,1045.2
2017-03-14T00:17:04.791Z,1045.23
2017-03-14T00:18:04.777Z,1045.23
2017-03-14T00:19:04.763Z,1045.23
2017-03-14T00:20:04.753Z,1045.31
2017-03-14T00:21:04.736Z,1045.31
2017-03-14T00:22:04.722Z,1045.3
2017-03-14T00:23:04.708Z,1045.27
2017-03-14T00:24:04.695Z,1045.24
2017-03-14T00:25:04.682Z,1045.23
2017-03-14T00:26:04.667Z,1045.25
2017-03-14T00:27:04.654Z,1045.29
2017-03-14T00:28:04.640Z,1045.3
2017-03-14T00:29:04.626Z,1045.24
2017-03-14T00:30:04.613Z,1045.21
2017-03-14T00:31:04.599Z,1045.24
2017-03-14T00:32:04.586Z,1045.27
2017-03-14T00:33:04.572Z,1045.28
2017-03-14T00:34:04.558Z,1045.34
2017-03-14T00:35:04.544Z,1045.38
2017-03-14T00:36:04.530Z,1045.37
2017-03-14T00:37:04.517Z,1045.33
2017-03-14T00:38:04.503Z,1045.37
2017-03-14T00:39:04.492Z,1045.37
2017-03-14T00:40:04.475Z,1045.37
2017-03-14T00:41:04.461Z,1045.4
2017-03-14T00:42:04.448Z,1045.43
2017-03-14T00:43:04.434Z,1045.41
2017-03-14T00:44:04.420Z,1045.44
2017-03-14T00:45:04.406Z,1045.44
2017-03-14T00:46:04.393Z,1045.43
2017-03-14T00:47:04.379Z,1045.46
2017-03-14T00:48:04.364Z,1045.46
2017-03-14T00:49:04.351Z,1045.45
2017-03-14T00:50:04.337Z,1045.45
2017-03-14T00:51:04.323Z,1045.45
2017-03-14T00:52:04.309Z,1045.46
2017-03-14T00:53:04.295Z,1045.42
2017-03-14T00:54:04.282Z,1045.4
2017-03-14T00:55:04.268Z,1045.37
2017-03-14T00:56:04.254Z,1045.37
2017-03-14T00:57:04.240Z,1045.37
2017-03-14T00:58:04.226Z,1045.38
2017-03-14T00:59:04.212Z,1045.4
2017-03-14T01:00:04.198Z,1045.42
2017-03-14T01:01:04.185Z,1045.4
2017-03-14T01:02:04.169Z,1045.44
2017-03-14T01:03:04.156Z,1045.46
2017-03-14T01:04:04.142Z,1045.47
2017-03-14T01:05:04.129Z,1045.48
2017-03-14T01:06:04.114Z,1045.46
2017-03-14T01:07:04.100Z,1045.48
2017-03-14T01:08:04.087Z,1045.44
2017-03-14T01:09:04.073Z,1045.45
2017-03-14T01:10:04.058Z,1045.43
2017-03-14T01:11:04.043Z,1045.42
2017-03-14T01:12:04.031Z,1045.35
2017-03-14T01:13:04.015Z,1045.35
2017-03-14T01:14:04.001Z,1045.33
2017-03-14T01:15:03.988Z,1045.32
2017-03-14T01:16:03.975Z,1045.35
2017-03-14T01:17:03.959Z,1045.37
2017-03-14T01:18:03.946Z,1045.37
2017-03-14T01:19:03.933Z,1045.34
2017-03-14T01:20:03.918Z,1045.37
2017-03-14T01:21:03.903Z,1045.36
2017-03-14T01:22:03.890Z,1045.34
2017-03-14T01:23:03.877Z,1045.32
2017-03-14T01:24:03.862Z,1045.33
2017-03-14T01:25:03.852Z,1045.35
2017-03-14T01:26:03.835Z,1045.37
2017-03-14T01:27:03.820Z,1045.38
2017-03-14T01:28:03.807Z,1045.34
2017-03-14T01:29:03.791Z,1045.39
2017-03-14T01:30:03.778Z,1045.4
2017-03-14T01:31:03.764Z,1045.44
2017-03-14T01:32:03.750Z,1045.42
2017-03-14T01:33:03.736Z,1045.41
2017-03-14T01:34:03.722Z,1045.41
2017-03-14T01:35:03.708Z,1045.38
2017-03-14T01:36:03.694Z,1045.36
2017-03-14T01:37:03.680Z,1045.37
2017-03-14T01:38:03.666Z,1045.32
2017-03-14T01:39:03.651Z,1045.23
2017-03-14T01:40:03.637Z,1045.18
2017-03-14T01:41:03.624Z,1045.12
2017-03-14T01:42:03.610Z,1045.09
2017-03-14T01:43:03.595Z,1045.04
2017-03-14T01:44:03.585Z,1044.94
2017-03-14T01:45:03.567Z,1044.87
2017-03-14T01:46:03.553Z,1044.91
2017-03-14T01:47:03.539Z,1044.87
2017-03-14T01:48:03.526Z,1044.81
2017-03-14T01:49:03.512Z,1044.77
2017-03-14T01:50:03.497Z,1044.75
2017-03-14T01:51:03.484Z,1044.75
2017-03-14T01:52:03.469Z,1044.8
2017-03-14T01:53:03.456Z,1044.83
2017-03-14T01:54:03.444Z,1044.83
2017-03-14T01:55:03.428Z,1044.88
2017-03-14T01:56:03.416Z,1044.87
2017-03-14T01:57:03.400Z,1044.9
2017-03-14T01:58:03.388Z,1044.9
2017-03-14T01:59:03.374Z,1044.9
2017-03-14T02:00:03.360Z,1044.92
2017-03-14T02:01:03.346Z,1044.91
2017-03-14T02:02:03.340Z,1044.93
2017-03-14T02:03:03.320Z,1044.97
2017-03-14T02:04:03.306Z,1044.98
2017-03-14T02:05:03.292Z,1045.02
2017-03-14T02:06:03.279Z,1045.04
2017-03-14T02:07:03.270Z,1045.04
2017-03-14T02:08:03.252Z,1045.07
2017-03-14T02:09:03.238Z,1045.03
2017-03-14T02:10:03.226Z,1045.03
2017-03-14T02:11:03.212Z,1045.06
2017-03-14T02:12:03.197Z,1045.02
2017-03-14T02:13:03.184Z,1045.02
2017-03-14T02:14:03.171Z,1045
2017-03-14T02:15:03.156Z,1044.98
2017-03-14T02:16:03.144Z,1044.97
2017-03-14T02:17:03.130Z,1044.96
2017-03-14T02:18:03.117Z,1044.94
2017-03-14T02:19:03.103Z,1044.93
2017-03-14T02:20:03.089Z,1044.96
2017-03-14T02:21:03.077Z,1044.93
2017-03-14T02:22:03.063Z,1044.87
2017-03-14T02:23:03.049Z,1044.84
2017-03-14T02:24:03.035Z,1044.82
2017-03-14T02:25:03.021Z,1044.75
2017-03-14T02:26:03.008Z,1044.71
2017-03-14T02:27:02.994Z,1044.67
2017-03-14T02:28:02.982Z,1044.6
2017-03-14T02:29:02.969Z,1044.63
2017-03-14T02:30:02.954Z,1044.6
2017-03-14T02:31:02.941Z,1044.53
2017-03-14T02:32:02.928Z,1044.53
2017-03-14T02:33:02.915Z,1044.52
2017-03-14T02:34:02.901Z,1044.46
2017-03-14T02:35:02.888Z,1044.43
2017-03-14T02:36:02.875Z,1044.42
2017-03-14T02:37:02.861Z,1044.44
2017-03-14T02:38:02.848Z,1044.47
2017-03-14T02:39:02.835Z,1044.43
2017-03-14T02:40:02.824Z,1044.42
2017-03-14T02:41:02.808Z,1044.36
2017-03-14T02:42:02.793Z,1044.32
2017-03-14T02:43:02.782Z,1044.28
2017-03-14T02:44:02.769Z,1044.28
2017-03-14T02:45:02.755Z,1044.33
2017-03-14T02:46:02.743Z,1044.37
2017-03-14T02:47:02.728Z,1044.43
2017-03-14T02:48:02.715Z,1044.43
2017-03-14T02:49:02.712Z,1044.48
2017-03-14T02:50:02.690Z,1044.49
2017-03-14T02:51:02.678Z,1044.47
2017-03-14T02:52:02.662Z,1044.48
2017-03-14T02:53:02.650Z,1044.51
2017-03-14T02:54:02.637Z,1044.55
2017-03-14T02:55:02.625Z,1044.59
2017-03-14T02:56:02.610Z,1044.61
2017-03-14T02:57:02.598Z,1044.62
2017-03-14T02:58:02.585Z,1044.67
2017-03-14T02:59:02.571Z,1044.67
2017-03-14T03:00:02.558Z,1044.71
2017-03-14T03:01:02.544Z,1044.69
2017-03-14T03:02:02.532Z,1044.74
2017-03-14T03:03:02.521Z,1044.71
2017-03-14T03:04:02.505Z,1044.73
2017-03-14T03:05:02.493Z,1044.72
2017-03-14T03:06:02.479Z,1044.71
2017-03-14T03:07:02.467Z,1044.73
2017-03-14T03:08:02.454Z,1044.75
2017-03-14T03:09:02.441Z,1044.68
2017-03-14T03:10:02.427Z,1044.66
2017-03-14T03:11:02.414Z,1044.68
2017-03-14T03:12:02.401Z,1044.68
2017-03-14T03:13:02.389Z,1044.62
2017-03-14T03:14:02.375Z,1044.6
2017-03-14T03:15:02.361Z,1044.61
2017-03-14T03:16:02.348Z,1044.55
2017-03-14T03:17:02.335Z,1044.55
2017-03-14T03:18:02.322Z,1044.52
2017-03-14T03:19:02.310Z,1044.5
2017-03-14T03:20:02.297Z,1044.53
2017-03-14T03:21:02.283Z,1044.56
2017-03-14T03:22:02.269Z,1044.58
2017-03-14T03:23:02.257Z,1044.55
2017-03-14T03:24:02.245Z,1044.52
2017-03-14T03:25:02.230Z,1044.51
2017-03-14T03:26:02.217Z,1044.48
2017-03-14T03:27:02.205Z,1044.45
2017-03-14T03:28:02.191Z,1044.4
2017-03-14T03:29:02.177Z,1044.42
2017-03-14T03:30:02.165Z,1044.4
2017-03-14T03:31:02.153Z,1044.44
2017-03-14T03:32:02.138Z,1044.39
2017-03-14T03:33:02.127Z,1044.42
2017-03-14T03:34:02.113Z,1044.46
2017-03-14T03:35:02.100Z,1044.41
2017-03-14T03:36:02.087Z,1044.41
2017-03-14T03:37:02.074Z,1044.38
2017-03-14T03:38:02.061Z,1044.41
2017-03-14T03:39:02.047Z,1044.39
2017-03-14T03:40:02.035Z,1044.38
2017-03-14T03:41:02.022Z,1044.36
2017-03-14T03:42:02.010Z,1044.34
2017-03-14T03:43:01.996Z,1044.37
2017-03-14T03:44:01.983Z,1044.41
2017-03-14T03:45:01.970Z,1044.46
2017-03-14T03:46:01.958Z,1044.48
2017-03-14T03:47:01.945Z,1044.43
2017-03-14T03:48:01.932Z,1044.43
2017-03-14T03:49:01.918Z,1044.38
2017-03-14T03:50:01.906Z,1044.42
2017-03-14T03:51:01.892Z,1044.41
2017-03-14T03:52:01.880Z,1044.44
2017-03-14T03:53:01.867Z,1044.37
2017-03-14T03:54:01.853Z,1044.35
2017-03-14T03:55:01.841Z,1044.33
2017-03-14T03:56:01.828Z,1044.33
2017-03-14T03:57:01.815Z,1044.32
2017-03-14T03:58:01.801Z,1044.31
2017-03-14T03:59:01.789Z,1044.32
2017-03-14T04:00:01.776Z,1044.36
2017-03-14T04:01:01.763Z,1044.37
2017-03-14T04:02:01.749Z,1044.34
2017-03-14T04:03:01.737Z,1044.34
2017-03-14T04:04:01.725Z,1044.35
2017-03-14T04:05:01.711Z,1044.36
2017-03-14T04:06:01.698Z,1044.33
2017-03-14T04:07:01.685Z,1044.37
2017-03-14T04:08:01.673Z,1044.34
2017-03-14T04:09:01.659Z,1044.31
2017-03-14T04:10:01.647Z,1044.34
2017-03-14T04:11:01.638Z,1044.29
2017-03-14T04:12:01.620Z,1044.32
2017-03-14T04:13:01.608Z,1044.32
2017-03-14T04:14:01.594Z,1044.24
2017-03-14T04:15:01.583Z,1044.24
2017-03-14T04:16:01.568Z,1044.22
2017-03-14T04:17:01.557Z,1044.19
2017-03-14T04:18:01.544Z,1044.23
2017-03-14T04:19:01.533Z,1044.19
2017-03-14T04:20:01.518Z,1044.17
2017-03-14T04:21:01.505Z,1044.17
2017-03-14T04:22:01.493Z,1044.14
2017-03-14T04:23:01.478Z,1044.16
2017-03-14T04:24:01.466Z,1044.18
2017-03-14T04:25:01.454Z,1044.17
2017-03-14T04:26:01.442Z,1044.17
2017-03-14T04:27:01.427Z,1044.18
2017-03-14T04:28:01.415Z,1044.2
2017-03-14T04:29:01.403Z,1044.23
2017-03-14T04:30:01.391Z,1044.24
2017-03-14T04:31:01.376Z,1044.24
2017-03-14T04:32:01.365Z,1044.26
2017-03-14T04:33:01.352Z,1044.25
2017-03-14T04:34:01.339Z,1044.26
2017-03-14T04:35:01.327Z,1044.24
2017-03-14T04:36:01.314Z,1044.25
2017-03-14T04:37:01.302Z,1044.27
2017-03-14T04:38:01.288Z,1044.27
2017-03-14T04:39:01.276Z,1044.23
2017-03-14T04:40:01.262Z,1044.22
2017-03-14T04:41:01.251Z,1044.21
2017-03-14T04:42:01.239Z,1044.17
2017-03-14T04:43:01.228Z,1044.18
2017-03-14T04:44:01.213Z,1044.17
2017-03-14T04:45:01.200Z,1044.2
2017-03-14T04:46:01.189Z,1044.19
2017-03-14T04:47:01.175Z,1044.19
2017-03-14T04:48:01.162Z,1044.14
2017-03-14T04:49:01.148Z,1044.14
2017-03-14T04:50:01.138Z,1044.06
2017-03-14T04:51:01.124Z,1044.05
2017-03-14T04:52:01.112Z,1043.99
2017-03-14T04:53:01.099Z,1044.05
2017-03-14T04:54:01.087Z,1044.05
2017-03-14T04:55:01.075Z,1044.03
2017-03-14T04:56:01.061Z,1044.03
2017-03-14T04:57:01.049Z,1044.07
2017-03-14T04:58:01.037Z,1044.04
2017-03-14T04:59:01.024Z,1044.07
2017-03-14T05:00:01.012Z,1044.08
2017-03-14T05:01:00.999Z,1044.09
2017-03-14T05:02:00.987Z,1044.04
2017-03-14T05:03:00.974Z,1044.05
2017-03-14T05:04:00.962Z,1044.08
2017-03-14T05:05:00.949Z,1044.12
2017-03-14T05:06:00.937Z,1044.15
2017-03-14T05:07:00.924Z,1044.16
2017-03-14T05:08:00.912Z,1044.17
2017-03-14T05:09:00.900Z,1044.14
2017-03-14T05:10:00.888Z,1044.18
2017-03-14T05:11:00.874Z,1044.22
2017-03-14T05:12:00.863Z,1044.17
2017-03-14T05:13:00.849Z,1044.19
2017-03-14T05:14:00.837Z,1044.16
2017-03-14T05:15:00.824Z,1044.21
2017-03-14T05:16:00.812Z,1044.19
2017-03-14T05:17:00.801Z,1044.17
2017-03-14T05:18:00.790Z,1044.18
2017-03-14T05:19:00.776Z,1044.19
2017-03-14T05:20:00.765Z,1044.17
2017-03-14T05:21:00.751Z,1044.21
2017-03-14T05:22:00.739Z,1044.23
2017-03-14T05:23:00.730Z,1044.24
2017-03-14T05:24:00.715Z,1044.28
2017-03-14T05:25:00.702Z,1044.28
2017-03-14T05:26:00.688Z,1044.3
2017-03-14T05:27:00.679Z,1044.32
2017-03-14T05:28:00.666Z,1044.28
2017-03-14T05:29:00.653Z,1044.28
2017-03-14T05:30:00.641Z,1044.25
2017-03-14T05:31:00.628Z,1044.23
2017-03-14T05:32:00.617Z,1044.22
2017-03-14T05:33:00.605Z,1044.2
2017-03-14T05:34:00.592Z,1044.22
2017-03-14T05:35:00.579Z,1044.19
2017-03-14T05:36:00.566Z,1044.19
2017-03-14T05:37:00.555Z,1044.21
2017-03-14T05:38:00.543Z,1044.19
2017-03-14T05:39:00.532Z,1044.2
2017-03-14T05:40:00.520Z,1044.12
2017-03-14T05:41:00.509Z,1044.1
2017-03-14T05:42:00.495Z,1044.1
2017-03-14T05:43:00.484Z,1044.08
2017-03-14T05:44:00.471Z,1044.07
2017-03-14T05:45:00.459Z,1044.03
2017-03-14T05:46:00.447Z,1044.01
2017-03-14T05:47:00.435Z,1043.96
2017-03-14T05:48:00.423Z,1043.94
2017-03-14T05:49:00.411Z,1043.96
2017-03-14T05:50:00.400Z,1043.98
2017-03-14T05:51:00.388Z,1043.95
2017-03-14T05:52:00.375Z,1043.94
2017-03-14T05:53:00.366Z,1043.94
2017-03-14T05:54:00.353Z,1043.96
2017-03-14T05:55:00.339Z,1043.91
2017-03-14T05:56:00.329Z,1043.92
2017-03-14T05:57:00.317Z,1043.89
2017-03-14T05:58:00.304Z,1043.92
2017-03-14T05:59:00.293Z,1043.88
2017-03-14T06:00:00.306Z,1043.84
2017-03-14T06:01:00.269Z,1043.84
2017-03-14T06:02:00.258Z,1043.85
2017-03-14T06:03:00.247Z,1043.87
2017-03-14T06:04:00.238Z,1043.82
2017-03-14T06:05:00.223Z,1043.86
2017-03-14T06:06:00.211Z,1043.84
2017-03-14T06:07:00.201Z,1043.79
2017-03-14T06:08:00.190Z,1043.77
2017-03-14T06:09:00.177Z,1043.77
2017-03-14T06:10:00.167Z,1043.76
2017-03-14T06:11:00.155Z,1043.73
2017-03-14T06:12:00.144Z,1043.74
2017-03-14T06:13:00.132Z,1043.69
2017-03-14T06:14:00.121Z,1043.68
2017-03-14T06:15:00.110Z,1043.67
2017-03-14T06:16:00.099Z,1043.66
2017-03-14T06:17:00.089Z,1043.64
2017-03-14T06:18:00.077Z,1043.6
2017-03-14T06:19:00.067Z,1043.6
2017-03-14T06:20:00.054Z,1043.6
2017-03-14T06:21:00.044Z,1043.52
2017-03-14T06:22:00.033Z,1043.52
2017-03-14T06:23:00.022Z,1043.5
2017-03-14T06:24:00.013Z,1043.43
2017-03-14T06:25:00.000Z,1043.4
2017-03-14T06:25:59.989Z,1043.35
2017-03-14T06:26:59.977Z,1043.3
2017-03-14T06:27:59.967Z,1043.29
2017-03-14T06:28:59.955Z,1043.29
2017-03-14T06:29:59.946Z,1043.26
2017-03-14T06:30:59.935Z,1043.23
2017-03-14T06:31:59.925Z,1043.19
2017-03-14T06:32:59.914Z,1043.17
2017-03-14T06:33:59.904Z,1043.13
2017-03-14T06:34:59.892Z,1043.1
2017-03-14T06:35:59.881Z,1043.09
2017-03-14T06:36:59.872Z,1043.02
2017-03-14T06:37:59.861Z,1042.98
2017-03-14T06:38:59.851Z,1042.97
2017-03-14T06:39:59.842Z,1042.87
2017-03-14T06:40:59.831Z,1042.85
2017-03-14T06:41:59.820Z,1042.8
2017-03-14T06:42:59.810Z,1042.82
2017-03-14T06:43:59.800Z,1042.76
2017-03-14T06:44:59.791Z,1042.8
2017-03-14T06:45:59.780Z,1042.78
2017-03-14T06:46:59.770Z,1042.78
2017-03-14T06:47:59.760Z,1042.77
2017-03-14T06:48:59.750Z,1042.73
2017-03-14T06:49:59.739Z,1042.64
2017-03-14T06:50:59.731Z,1042.54
2017-03-14T06:51:59.721Z,1042.52
2017-03-14T06:52:59.710Z,1042.47
2017-03-14T06:53:59.701Z,1042.43
2017-03-14T06:54:59.691Z,1042.38
2017-03-14T06:55:59.683Z,1042.32
2017-03-14T06:56:59.672Z,1042.25
2017-03-14T06:57:59.663Z,1042.21
2017-03-14T06:58:59.654Z,1042.16
2017-03-14T06:59:59.643Z,1042.1
2017-03-14T07:00:59.634Z,1042
2017-03-14T07:01:59.625Z,1041.95
2017-03-14T07:02:59.616Z,1041.87
2017-03-14T07:03:59.607Z,1041.88
2017-03-14T07:04:59.598Z,1041.79
2017-03-14T07:05:59.589Z,1041.74
2017-03-14T07:06:59.581Z,1041.67
2017-03-14T07:07:59.571Z,1041.59
2017-03-14T07:08:59.563Z,1041.51
2017-03-14T07:09:59.554Z,1041.45
2017-03-14T07:10:59.544Z,1041.41
2017-03-14T07:11:59.537Z,1041.35
2017-03-14T07:12:59.527Z,1041.3
2017-03-14T07:13:59.519Z,1041.26
2017-03-14T07:14:59.510Z,1041.17
2017-03-14T07:15:59.502Z,1041.17
2017-03-14T07:16:59.493Z,1041.12
2017-03-14T07:17:59.485Z,1041.08
2017-03-14T07:18:59.477Z,1041.1
2017-03-14T07:19:59.467Z,1041.02
2017-03-14T07:20:59.460Z,1040.98
2017-03-14T07:21:59.451Z,1040.96
2017-03-14T07:22:59.444Z,1040.86
2017-03-14T07:23:59.436Z,1040.81
2017-03-14T07:24:59.428Z,1040.79
2017-03-14T07:25:59.420Z,1040.72
2017-03-14T07:26:59.412Z,1040.62
2017-03-14T07:27:59.405Z,1040.54
2017-03-14T07:28:59.398Z,1040.45
2017-03-14T07:29:59.389Z,1040.48
2017-03-14T07:30:59.382Z,1040.54
2017-03-14T07:31:59.374Z,1040.56
2017-03-14T07:32:59.367Z,1040.54
2017-03-14T07:33:59.359Z,1040.52
2017-03-14T07:34:59.353Z,1040.5
2017-03-14T07:35:59.346Z,1040.47
2017-03-14T07:36:59.337Z,1040.44
2017-03-14T07:37:59.330Z,1040.4
2017-03-14T07:38:59.323Z,1040.31
2017-03-14T07:39:59.316Z,1040.24
2017-03-14T07:40:59.338Z,1040.22
2017-03-14T07:41:59.302Z,1040.2
2017-03-14T07:42:59.295Z,1040.09
2017-03-14T07:43:59.286Z,1040.03
2017-03-14T07:44:59.280Z,1039.97
2017-03-14T07:45:59.272Z,1039.89
2017-03-14T07:46:59.266Z,1039.84
2017-03-14T07:47:59.259Z,1039.79
2017-03-14T07:48:59.252Z,1039.82
2017-03-14T07:49:59.246Z,1039.81
2017-03-14T07:50:59.239Z,1039.84
2017-03-14T07:51:59.233Z,1039.81
2017-03-14T07:52:59.231Z,1039.79
2017-03-14T07:53:59.219Z,1039.75
2017-03-14T07:54:59.213Z,1039.71
2017-03-14T07:55:59.207Z,1039.69
2017-03-14T07:56:59.200Z,1039.61
2017-03-14T07:57:59.194Z,1039.59
2017-03-14T07:58:59.187Z,1039.59
2017-03-14T07:59:59.208Z,1039.65
2017-03-14T08:00:59.174Z,1039.75
2017-03-14T08:01:59.166Z,1039.82
2017-03-14T08:02:59.161Z,1039.83
2017-03-14T08:03:59.155Z,1039.88
2017-03-14T08:04:59.158Z,1039.82
2017-03-14T08:05:59.170Z,1039.8
2017-03-14T08:06:59.135Z,1039.72
2017-03-14T08:07:59.129Z,1039.62
2017-03-14T08:08:59.124Z,1039.58
2017-03-14T08:09:59.121Z,1039.6
2017-03-14T08:10:59.110Z,1039.54
2017-03-14T08:11:59.105Z,1039.54
2017-03-14T08:12:59.098Z,1039.57
2017-03-14T08:13:59.091Z,1039.61
2017-03-14T08:14:59.086Z,1039.67
2017-03-14T08:15:59.081Z,1039.68
2017-03-14T08:16:59.074Z,1039.69
2017-03-14T08:17:59.069Z,1039.75
2017-03-14T08:18:59.062Z,1039.8
2017-03-14T08:19:59.056Z,1039.88
2017-03-14T08:20:59.050Z,1039.87
2017-03-14T08:21:59.043Z,1039.85
2017-03-14T08:22:59.039Z,1039.78
2017-03-14T08:23:59.036Z,1039.84
2017-03-14T08:24:59.031Z,1039.78
2017-03-14T08:25:59.020Z,1039.83
2017-03-14T08:26:59.014Z,1039.86
2017-03-14T08:27:59.007Z,1040
2017-03-14T08:28:59.003Z,1040.1
2017-03-14T08:29:58.998Z,1040.23
2017-03-14T08:30:58.991Z,1040.34
2017-03-14T08:31:58.984Z,1040.54
2017-03-14T08:32:58.980Z,1040.77
2017-03-14T08:33:58.973Z,1040.89
2017-03-14T08:34:58.966Z,1041.07
2017-03-14T08:35:58.961Z,1041.16
2017-03-14T08:36:58.955Z,1041.18
2017-03-14T08:37:58.949Z,1041.24
2017-03-14T08:38:58.945Z,1041.26
2017-03-14T08:39:58.936Z,1041.13
2017-03-14T08:40:58.930Z,1041.13
2017-03-14T08:41:58.924Z,1041.16
2017-03-14T08:42:58.916Z,1041.13
2017-03-14T08:43:58.910Z,1041.15
2017-03-14T08:44:58.904Z,1041.19
2017-03-14T08:45:58.897Z,1041.19
2017-03-14T08:46:58.891Z,1041.16
2017-03-14T08:47:58.883Z,1041.08
2017-03-14T08:48:58.877Z,1040.94
2017-03-14T08:49:58.869Z,1040.93
2017-03-14T08:50:58.864Z,1040.83
2017-03-14T08:51:58.858Z,1040.77
2017-03-14T08:52:58.851Z,1040.65
2017-03-14T08:53:58.844Z,1040.66
2017-03-14T08:54:58.838Z,1040.66
2017-03-14T08:55:58.832Z,1040.64
2017-03-14T08:56:58.825Z,1040.66
2017-03-14T08:57:58.819Z,1040.64
2017-03-14T08:58:58.814Z,1040.62
2017-03-14T08:59:58.806Z,1040.54
2017-03-14T09:00:58.799Z,1040.56
2017-03-14T09:01:58.793Z,1040.54
2017-03-14T09:02:58.787Z,1040.61
2017-03-14T09:03:58.781Z,1040.66
2017-03-14T09:04:58.773Z,1040.75
2017-03-14T09:05:58.766Z,1040.9
2017-03-14T09:06:58.760Z,1040.93
2017-03-14T09:07:58.753Z,1041.05
2017-03-14T09:08:58.747Z,1041.04
2017-03-14T09:09:58.741Z,1041.02
2017-03-14T09:10:58.736Z,1040.95
2017-03-14T09:11:58.728Z,1040.88
2017-03-14T09:12:58.722Z,1040.77
2017-03-14T09:13:58.717Z,1040.67
2017-03-14T09:14:58.710Z,1040.57
2017-03-14T09:15:58.702Z,1040.58
2017-03-14T09:16:58.696Z,1040.63
2017-03-14T09:17:58.690Z,1040.62
2017-03-14T09:18:58.684Z,1040.61
2017-03-14T09:19:58.676Z,1040.62
2017-03-14T09:20:58.672Z,1040.63
2017-03-14T09:21:58.664Z,1040.52
2017-03-14T09:22:58.657Z,1040.4
2017-03-14T09:23:58.651Z,1040.34
2017-03-14T09:24:58.645Z,1040.21
2017-03-14T09:25:58.640Z,1040.1
2017-03-14T09:26:58.632Z,1040.2
2017-03-14T09:27:58.629Z,1040.13
2017-03-14T09:28:58.621Z,1040.11
2017-03-14T09:29:58.615Z,1040.06
2017-03-14T09:30:58.607Z,1040.02
2017-03-14T09:31:58.602Z,1040.01
2017-03-14T09:32:58.596Z,1039.91
2017-03-14T09:33:58.590Z,1039.74
2017-03-14T09:34:58.585Z,1039.53
2017-03-14T09:35:58.580Z,1039.45
2017-03-14T09:36:58.573Z,1039.39
2017-03-14T09:37:58.567Z,1039.32
2017-03-14T09:38:58.562Z,1039.21
2017-03-14T09:39:58.556Z,1039.16
2017-03-14T09:40:58.552Z,1039.13
2017-03-14T09:41:58.544Z,1039.13
2017-03-14T09:42:58.559Z,1039.1
2017-03-14T09:43:58.534Z,1039.03
2017-03-14T09:44:58.527Z,1039
2017-03-14T09:45:58.523Z,1039.02
2017-03-14T09:46:58.518Z,1039.08
2017-03-14T09:47:58.512Z,1039.22
2017-03-14T09:48:58.507Z,1039.19
2017-03-14T09:49:58.503Z,1039.18
2017-03-14T09:50:58.497Z,1039.14
2017-03-14T09:51:58.491Z,1039.19
2017-03-14T09:52:58.485Z,1039.21
2017-03-14T09:53:58.481Z,1039.29
2017-03-14T09:54:58.476Z,1039.32
2017-03-14T09:55:58.471Z,1039.36
2017-03-14T09:56:58.465Z,1039.33
2017-03-14T09:57:58.461Z,1039.35
2017-03-14T09:58:58.454Z,1039.46
2017-03-14T09:59:58.450Z,1039.61
2017-03-14T10:00:58.445Z,1039.71
2017-03-14T10:01:58.441Z,1039.77
2017-03-14T10:02:58.434Z,1039.85
2017-03-14T10:03:58.431Z,1039.94
2017-03-14T10:04:58.424Z,1039.99
2017-03-14T10:05:58.417Z,1039.96
2017-03-14T10:06:58.412Z,1040.01
2017-03-14T10:07:58.407Z,1040.05
2017-03-14T10:08:58.401Z,1040.13
2017-03-14T10:09:58.396Z,1040.13
2017-03-14T10:10:58.392Z,1040.15
2017-03-14T10:11:58.385Z,1040.13
2017-03-14T10:12:58.380Z,1040.04
2017-03-14T10:13:58.373Z,1039.95
2017-03-14T10:14:58.368Z,1039.96
2017-03-14T10:15:58.363Z,1039.93
2017-03-14T10:16:58.357Z,1039.89
2017-03-14T10:17:58.352Z,1039.83
2017-03-14T10:18:58.348Z,1039.7
2017-03-14T10:19:58.340Z,1039.64
2017-03-14T10:20:58.334Z,1039.58
2017-03-14T10:21:58.331Z,1039.55
2017-03-14T10:22:58.324Z,1039.56
2017-03-14T10:23:58.320Z,1039.57
2017-03-14T10:24:58.312Z,1039.59
2017-03-14T10:25:58.307Z,1039.7
2017-03-14T10:26:58.302Z,1039.84
2017-03-14T10:27:58.296Z,1039.84
2017-03-14T10:28:58.290Z,1039.82
2017-03-14T10:29:58.286Z,1039.82
2017-03-14T10:30:58.279Z,1039.75
2017-03-14T10:31:58.273Z,1039.68
2017-03-14T10:32:58.268Z,1039.64
2017-03-14T10:33:58.263Z,1039.55
2017-03-14T10:34:58.258Z,1039.47
2017-03-14T10:35:58.252Z,1039.39
2017-03-14T10:36:58.247Z,1039.33
2017-03-14T10:37:58.241Z,1039.29
2017-03-14T10:38:58.238Z,1039.24
2017-03-14T10:39:58.231Z,1039.27
2017-03-14T10:40:58.227Z,1039.28
2017-03-14T10:41:58.221Z,1039.31
2017-03-14T10:42:58.214Z,1039.33
2017-03-14T10:43:58.209Z,1039.35
2017-03-14T10:44:58.206Z,1039.38
2017-03-14T10:45:58.199Z,1039.41
2017-03-14T10:46:58.195Z,1039.5
2017-03-14T10:47:58.189Z,1039.72
2017-03-14T10:48:58.184Z,1039.77
2017-03-14T10:49:58.179Z,1039.8
2017-03-14T10:50:58.173Z,1039.78
2017-03-14T10:51:58.167Z,1039.72
2017-03-14T10:52:58.162Z,1039.57
2017-03-14T10:53:58.157Z,1039.53
2017-03-14T10:54:58.152Z,1039.42
2017-03-14T10:55:58.147Z,1039.31
2017-03-14T10:56:58.142Z,1039.18
2017-03-14T10:57:58.136Z,1039.09
2017-03-14T10:58:58.150Z,1039.05
2017-03-14T10:59:58.126Z,1039
2017-03-14T11:00:58.121Z,1038.94
2017-03-14T11:01:58.121Z,1038.88
2017-03-14T11:02:58.112Z,1038.89
2017-03-14T11:03:58.106Z,1038.97
2017-03-14T11:04:58.101Z,1039.01
2017-03-14T11:05:58.097Z,1039.02
2017-03-14T11:06:58.091Z,1039.03
2017-03-14T11:07:58.087Z,1039.12
2017-03-14T11:08:58.081Z,1039.2
2017-03-14T11:09:58.076Z,1039.26
2017-03-14T11:10:58.071Z,1039.3
2017-03-14T11:11:58.067Z,1039.41
2017-03-14T11:12:58.061Z,1039.53
2017-03-14T11:13:58.057Z,1039.6
2017-03-14T11:14:58.052Z,1039.65
2017-03-14T11:15:58.046Z,1039.68
2017-03-14T11:16:58.043Z,1039.73
2017-03-14T11:17:58.037Z,1039.71
2017-03-14T11:18:58.031Z,1039.7
2017-03-14T11:19:58.027Z,1039.67
2017-03-14T11:20:58.021Z,1039.73
2017-03-14T11:21:58.018Z,1039.73
2017-03-14T11:22:58.014Z,1039.72
2017-03-14T11:23:58.007Z,1039.69
2017-03-14T11:24:58.002Z,1039.65
2017-03-14T11:25:57.997Z,1039.71
2017-03-14T11:26:57.991Z,1039.74
2017-03-14T11:27:57.986Z,1039.76
2017-03-14T11:28:57.981Z,1039.82
2017-03-14T11:29:57.976Z,1039.86
2017-03-14T11:30:57.970Z,1039.95
2017-03-14T11:31:57.964Z,1039.92
2017-03-14T11:32:57.959Z,1039.98
2017-03-14T11:33:57.954Z,1039.99
2017-03-14T11:34:57.948Z,1039.98
2017-03-14T11:35:57.944Z,1040
2017-03-14T11:36:57.938Z,1040.01
2017-03-14T11:37:57.932Z,1040.01
2017-03-14T11:38:57.930Z,1040.08
2017-03-14T11:39:57.921Z,1040.13
2017-03-14T11:40:57.916Z,1040.19
2017-03-14T11:41:57.911Z,1040.17
2017-03-14T11:42:57.906Z,1040.19
2017-03-14T11:43:57.900Z,1040.16
2017-03-14T11:44:57.894Z,1040.16
2017-03-14T11:45:57.890Z,1040.1
2017-03-14T11:46:57.883Z,1040.07
2017-03-14T11:47:57.878Z,1039.93
2017-03-14T11:48:57.872Z,1039.86
2017-03-14T11:49:57.866Z,1039.82
2017-03-14T11:50:57.861Z,1039.73
2017-03-14T11:51:57.856Z,1039.66
2017-03-14T11:52:57.849Z,1039.67
2017-03-14T11:53:57.844Z,1039.71
2017-03-14T11:54:57.838Z,1039.71
2017-03-14T11:55:57.832Z,1039.7
2017-03-14T11:56:57.827Z,1039.69
2017-03-14T11:57:57.822Z,1039.74
2017-03-14T11:58:57.816Z,1039.67
2017-03-14T11:59:57.810Z,1039.63
2017-03-14T12:00:57.805Z,1039.59
2017-03-14T12:01:57.802Z,1039.58
2017-03-14T12:02:57.794Z,1039.46
2017-03-14T12:03:57.789Z,1039.44
2017-03-14T12:04:57.783Z,1039.34
2017-03-14T12:05:57.779Z,1039.22
2017-03-14T12:06:57.772Z,1039.13
2017-03-14T12:07:57.767Z,1039.05